Latest Weather Observations for Kununurra Airport

IDD60801

Issued at 3:31 pm CST Sunday 22 October 2017 (issued every 30 minutes, with the page automatically refreshed every 10 minutes)

About weather observations | Map of weather stations | Latest weather observations for NT | Other Formats
Station Details ID: 002056 Name: KUNUNURRA AERO Lat: -15.78 Lon: 128.71 Height: 44.0 m
Data from the previous 72 hours. | See also: Recent months at Kununurra Airport
Date/Time
CST
Temp
°C
App
Temp
°C
Dew
Point
°C
Rel
Hum
%
Delta-T
°C
Wind Press
QNH
hPa
Press
MSL
hPa
Rain since
9am
mm
Dir  Spd
km/h
Gust
km/h
Spd
kts
Gust
kts
22/03:30pm 38.4 34.5 7.2 15 17.6 SE 17 30 9 16 1008.0 1007.7 0.0
22/03:00pm 37.9 35.1 6.8 15 17.4 E 11 17 6 9 1008.3 1008.0 0.0
22/02:30pm 38.9 35.5 7.6 15 17.8 SE 15 24 8 13 1008.7 1008.4 0.0
22/02:00pm 38.5 35.4 7.3 15 17.6 ENE 13 28 7 15 1009.1 1008.8 0.0
22/01:30pm 37.8 34.4 7.7 16 17.1 SSE 15 20 8 11 1009.6 1009.3 0.0
22/01:00pm 38.8 35.8 9.4 17 17.2 ENE 15 28 8 15 1010.1 1009.8 0.0
22/12:30pm 37.1 33.2 9.6 19 16.0 E 20 33 11 18 1010.8 1010.5 0.0
22/12:00pm 36.7 32.8 9.3 19 15.8 ESE 20 30 11 16 1011.4 1011.1 0.0
22/11:30am 36.6 32.6 9.2 19 15.8 E 20 30 11 16 1011.9 1011.6 0.0
22/11:00am 36.5 32.0 9.9 20 15.5 E 24 37 13 20 1012.3 1012.0 0.0
22/10:30am 35.3 31.1 9.7 21 14.8 ENE 22 30 12 16 1012.8 1012.5 0.0
22/10:00am 35.3 30.1 10.4 22 14.5 E 28 39 15 21 1013.0 1012.7 0.0
22/09:30am 34.2 28.4 10.7 24 13.7 E 32 41 17 22 1013.1 1012.8 0.0
22/09:00am 33.7 27.9 10.9 25 13.3 E 32 43 17 23 1013.0 1012.7 0.0
22/08:30am 33.0 27.1 10.4 25 13.1 E 32 43 17 23 1012.8 1012.5 0.0
22/08:12am 32.2 28.1 11.4 28 12.2 ESE 24 35 13 19 1012.7 1012.4 0.0
22/08:00am 31.5 28.3 11.3 29 11.8 ESE 19 26 10 14 1012.6 1012.3 0.0
22/07:54am 31.1 28.7 12.5 32 11.0 ESE 17 20 9 11 1012.6 1012.3 0.0
22/07:30am 29.6 27.8 12.1 34 10.2 ESE 13 17 7 9 1012.4 1012.1 0.0
22/07:00am 28.5 26.3 12.0 36 9.6 SE 15 19 8 10 1012.0 1011.7 0.0
22/06:30am 24.2 26.3 20.1 78 2.7 SE 9 13 5 7 1011.6 1011.3 0.0
22/06:00am 22.7 26.0 21.9 95 0.5 NNW 7 11 4 6 1011.4 1011.1 0.0
22/05:30am 22.4 25.4 20.9 91 1.0 NE 6 9 3 5 1011.0 1010.7 0.0
22/05:00am 22.5 25.8 20.0 86 1.6 ESE 2 9 1 5 1010.6 1010.3 0.0
22/04:30am 23.6 28.3 21.9 90 1.1 CALM 0 0 0 0 1010.3 1010.0 0.0
22/04:00am 24.0 28.7 21.9 88 1.4 CALM 0 0 0 0 1010.2 1009.9 0.0
22/03:30am 23.6 27.1 20.3 82 2.1 WNW 2 6 1 3 1010.0 1009.7 0.0
22/03:29am 23.6 26.7 20.3 82 2.1 WNW 4 6 2 3 1010.0 1009.7 0.0
22/03:17am 24.4 27.9 21.9 86 1.7 WNW 6 7 3 4 1010.0 1009.7 0.0
22/03:00am 24.9 28.4 22.2 85 1.8 WNW 7 9 4 5 1010.1 1009.8 0.0
22/02:30am 24.5 26.8 21.4 83 2.1 NNW 11 11 6 6 1010.2 1009.9 0.0
22/02:00am 24.2 27.6 20.9 82 2.2 NW 4 11 2 6 1010.5 1010.2 0.0
22/01:30am 25.2 28.3 21.1 78 2.7 NNW 6 7 3 4 1010.4 1010.1 0.0
22/01:00am 25.5 28.6 21.0 76 3.0 WNW 6 7 3 4 1010.8 1010.5 0.0
22/12:30am 25.7 28.7 20.9 75 3.2 NW 6 9 3 5 1010.8 1010.5 0.0
22/12:00am 25.9 29.6 20.0 70 3.8 CALM 0 7 0 4 1011.0 1010.7 0.0
 
Date/Time
CST
Temp
°C
App
Temp
°C
Dew
Point
°C
Rel
Hum
%
Delta-T
°C
Wind Press
QNH
hPa
Press
MSL
hPa
Rain since
9am
mm
Dir  Spd
km/h
Gust
km/h
Spd
kts
Gust
kts
21/11:30pm 26.4 30.1 20.0 68 4.2 CALM 0 0 0 0 1011.2 1010.9 0.0
21/11:00pm 26.9 29.2 19.5 64 4.8 WNW 6 7 3 4 1011.2 1010.9 0.0
21/10:30pm 26.5 28.9 20.1 68 4.2 NW 7 9 4 5 1011.1 1010.8 0.0
21/10:00pm 27.4 30.5 18.7 59 5.6 CALM 0 0 0 0 1010.9 1010.6 0.0
21/09:30pm 28.5 31.7 18.9 56 6.2 CALM 0 0 0 0 1010.7 1010.4 0.0
21/09:01pm 29.5 32.4 18.3 51 7.2 CALM 0 0 0 0 1010.5 1010.2 0.0
21/09:00pm 29.5 32.4 18.3 51 7.2 CALM 0 0 0 0 1010.5 1010.2 0.0
21/08:48pm 29.8 32.6 18.9 52 7.1 NW 2 6 1 3 1010.4 1010.1 0.0
21/08:30pm 29.8 32.5 18.6 51 7.2 NW 2 6 1 3 1010.3 1010.0 0.0
21/08:00pm 32.2 33.7 18.0 42 9.2 NW 7 9 4 5 1010.0 1009.7 0.0
21/07:30pm 33.6 35.4 16.5 36 10.9 ENE 2 7 1 4 1009.7 1009.4 0.0
21/07:00pm 35.2 34.4 16.0 31 12.2 ENE 15 22 8 12 1009.3 1009.0 0.0
21/06:30pm 36.3 37.6 17.0 32 12.4 S 6 11 3 6 1009.1 1008.8 0.0
21/06:00pm 36.2 38.2 16.9 32 12.4 E 2 7 1 4 1008.7 1008.4 0.0
21/05:30pm 36.5 37.0 16.6 30 12.8 ESE 9 11 5 6 1008.6 1008.3 0.0
21/05:00pm 37.1 35.9 16.1 29 13.4 ESE 17 28 9 15 1008.7 1008.4 0.0
21/04:30pm 37.4 37.8 16.4 29 13.5 S 9 13 5 7 1008.9 1008.6 0.0
21/04:00pm 37.3 36.7 15.7 27 13.7 SE 13 20 7 11 1009.0 1008.7 0.0
21/03:30pm 37.9 37.9 16.2 27 13.9 SE 11 20 6 11 1009.2 1008.9 0.0
21/03:00pm 37.7 37.4 15.5 27 14.1 SE 11 22 6 12 1009.8 1009.5 0.0
21/02:30pm 37.2 35.8 15.6 27 13.7 SE 17 22 9 12 1010.6 1010.3 0.0
21/02:00pm 37.3 36.7 15.7 27 13.7 SE 13 20 7 11 1011.1 1010.8 0.0
21/01:30pm 37.2 35.8 15.6 27 13.7 SE 17 24 9 13 1011.7 1011.4 0.0
21/01:00pm 36.8 35.5 15.8 28 13.3 SE 17 28 9 15 1012.3 1012.0 0.0
21/12:30pm 37.6 36.0 16.5 28 13.5 ESE 20 33 11 18 1013.0 1012.7 0.0
21/12:00pm 36.4 34.6 16.0 29 13.0 ESE 20 35 11 19 1013.4 1013.1 0.0
21/11:30am 35.9 34.3 16.6 31 12.3 ESE 20 28 11 15 1013.8 1013.5 0.0
21/11:00am 35.0 33.5 16.8 34 11.6 ESE 20 28 11 15 1014.1 1013.8 0.0
21/10:30am 34.5 33.0 16.8 34 11.3 ESE 20 26 11 14 1014.4 1014.1 2.2
21/10:00am 35.2 33.4 17.9 36 11.2 E 24 35 13 19 1014.4 1014.1 2.2
21/09:30am 34.0 31.2 18.1 39 10.3 ESE 30 37 16 20 1014.3 1014.0 2.2
21/09:00am 33.4 32.4 18.0 40 10.0 ESE 20 32 11 17 1014.2 1013.9 2.2
21/08:30am 31.1 32.4 21.6 57 6.4 SSE 17 22 9 12 1014.1 1013.8 2.2
21/08:00am 28.6 32.3 23.3 73 3.6 SSE 9 15 5 8 1013.9 1013.6 2.2
21/07:30am 26.9 31.0 23.2 80 2.5 S 7 13 4 7 1013.4 1013.1 2.2
21/07:00am 26.4 30.2 22.7 80 2.5 SE 7 9 4 5 1012.9 1012.6 2.2
21/06:30am 25.8 29.2 22.7 83 2.1 SE 9 11 5 6 1012.5 1012.2 2.2
21/06:00am 25.3 29.4 23.0 87 1.6 E 6 7 3 4 1012.2 1011.9 2.2
21/05:30am 25.2 29.4 23.1 88 1.4 E 6 9 3 5 1011.9 1011.6 2.2
21/05:00am 25.0 30.5 23.4 91 1.1 CALM 0 0 0 0 1011.6 1011.3 2.2
21/04:58am 25.0 30.4 23.2 90 1.2 CALM 0 0 0 0 1011.5 1011.2 2.2
21/04:40am 25.2 30.3 23.3 89 1.3 SSE 2 7 1 4 1011.4 1011.1 2.2
21/04:30am 25.3 29.7 23.4 89 1.3 SE 6 7 3 4 1011.4 1011.1 2.2
21/04:00am 25.0 29.0 23.1 89 1.3 SSE 7 9 4 5 1011.2 1010.9 2.2
21/03:30am 24.9 29.0 23.3 91 1.1 SSE 7 9 4 5 1011.1 1010.8 2.2
21/03:00am 24.7 29.8 23.3 92 1.0 SE 2 7 1 4 1011.1 1010.8 2.2
21/02:39am 24.2 28.1 23.0 93 0.8 WSW 7 13 4 7 1011.2 1010.9 2.2
21/02:30am 24.0 29.2 22.8 93 0.8 CALM 0 0 0 0 1011.3 1011.0 2.2
21/02:20am 24.1 28.7 22.5 91 1.1 ENE 2 11 1 6 1011.3 1011.0 2.2
21/02:00am 24.2 29.5 23.0 93 0.8 CALM 0 0 0 0 1011.4 1011.1 2.2
21/01:44am 24.3 28.4 23.3 94 0.7 NW 7 9 4 5 1011.4 1011.1 2.2
21/01:34am 24.2 27.9 23.2 94 0.7 WNW 9 9 5 5 1011.4 1011.1 2.2
21/01:30am 24.1 27.7 23.1 94 0.7 WNW 9 9 5 5 1011.3 1011.0 2.2
21/01:00am 24.4 29.7 23.0 92 0.9 CALM 0 0 0 0 1011.4 1011.1 2.2
21/12:30am 24.6 29.8 22.8 90 1.2 CALM 0 0 0 0 1011.5 1011.2 2.2
21/12:00am 24.5 29.7 22.9 91 1.1 CALM 0 0 0 0 1011.8 1011.5 2.2
 
Date/Time
CST
Temp
°C
App
Temp
°C
Dew
Point
°C
Rel
Hum
%
Delta-T
°C
Wind Press
QNH
hPa
Press
MSL
hPa
Rain since
9am
mm
Dir  Spd
km/h
Gust
km/h
Spd
kts
Gust
kts
20/11:40pm 24.9 30.1 22.8 88 1.4 CALM 0 0 0 0 1011.9 1011.6 2.2
20/11:30pm 25.0 30.0 22.5 86 1.7 CALM 0 0 0 0 1011.8 1011.5 2.2
20/11:29pm 25.0 30.1 22.7 87 1.6 CALM 0 0 0 0 1011.8 1011.5 2.2
20/11:00pm 25.1 30.5 23.2 89 1.3 CALM 0 0 0 0 1012.0 1011.7 2.2
20/10:30pm 25.2 30.5 23.1 88 1.4 CALM 0 0 0 0 1011.9 1011.6 2.2
20/10:00pm 25.6 30.8 22.9 85 1.8 CALM 0 0 0 0 1012.0 1011.7 2.2
20/09:30pm 26.1 31.4 23.0 83 2.1 CALM 0 0 0 0 1011.8 1011.5 2.2
20/09:29pm 26.1 31.3 22.8 82 2.2 CALM 0 0 0 0 1011.8 1011.5 2.2
20/09:16pm 26.3 31.5 22.8 81 2.4 CALM 0 0 0 0 1011.7 1011.4 2.2
20/09:00pm 26.3 30.0 22.6 80 2.5 NNE 7 9 4 5 1011.8 1011.5 2.2
20/08:30pm 26.7 29.2 22.5 78 2.8 NNE 13 19 7 10 1011.5 1011.2 2.2
20/08:00pm 26.9 30.7 22.7 78 2.8 N 7 11 4 6 1011.6 1011.3 2.2
20/07:38pm 27.4 30.4 22.6 75 3.3 N 11 17 6 9 1011.3 1011.0 2.2
20/07:30pm 27.6 29.7 22.5 74 3.5 N 15 19 8 10 1011.2 1010.9 2.2
20/07:25pm 27.7 29.4 22.4 73 3.6 N 17 22 9 12 1011.1 1010.8 2.2
20/07:00pm 28.3 29.3 22.1 69 4.2 N 20 26 11 14 1010.9 1010.6 2.2
20/06:30pm 29.3 31.2 21.3 62 5.4 N 13 20 7 11 1009.6 1009.3 2.2
20/06:00pm 29.3 31.5 21.8 64 5.1 N 13 17 7 9 1009.4 1009.1 2.2
20/05:30pm 29.9 31.7 21.8 62 5.5 N 15 20 8 11 1009.1 1008.8 2.2
20/05:00pm 29.9 33.3 23.3 67 4.5 N 11 13 6 7 1008.9 1008.6 2.2
20/04:30pm 30.6 33.8 23.0 64 5.2 NNE 11 17 6 9 1009.0 1008.7 2.2
20/04:00pm 30.3 33.6 22.5 63 5.3 NNW 9 13 5 7 1009.0 1008.7 2.2
20/03:30pm 31.9 33.3 22.9 59 6.2 ESE 20 33 11 18 1010.3 1010.0 2.2
20/03:00pm 30.5 34.5 23.7 67 4.7 WNW 9 15 5 8 1009.9 1009.6 2.2
20/02:30pm 28.5 30.3 24.3 78 2.9 NNE 22 37 12 20 1010.6 1010.3 2.2
20/02:18pm 27.4 30.2 24.3 83 2.1 W 17 30 9 16 1010.7 1010.4 2.2
20/02:05pm 26.5 25.1 22.3 78 2.8 W 33 50 18 27 1010.3 1010.0 2.2
20/02:00pm 26.6 24.0 22.2 77 3.0 WSW 39 56 21 30 1010.5 1010.2 2.0
20/01:58pm 26.5 24.0 22.3 78 2.8 SW 39 56 21 30 1010.6 1010.3 2.0
20/01:55pm 27.1 25.1 22.5 76 3.1 SSW 37 56 20 30 1010.5 1010.2 0.6
20/01:53pm 27.0 25.1 22.0 74 3.4 S 35 56 19 30 1010.3 1010.0 0.0
20/01:50pm 27.9 26.5 22.2 71 3.8 SSE 33 56 18 30 1010.1 1009.8 0.0
20/01:47pm 31.4 29.3 21.6 56 6.6 SE 35 52 19 28 1010.1 1009.8 0.0
20/01:41pm 31.5 31.6 20.4 51 7.4 SSE 20 52 11 28 1010.3 1010.0 0.0
20/01:38pm 35.1 37.4 19.9 41 10.1 SSW 7 50 4 27 1010.4 1010.1 0.0
20/01:30pm 37.5 39.0 19.0 34 12.3 NNE 9 15 5 8 1009.8 1009.5 0.0
20/01:00pm 38.1 40.3 20.4 35 12.0 WSW 9 17 5 9 1010.3 1010.0 0.0
20/12:30pm 37.6 40.0 20.8 37 11.4 ENE 9 20 5 11 1011.3 1011.0 0.0
20/12:00pm 37.3 39.2 21.4 39 10.9 NW 13 19 7 10 1011.8 1011.5 0.0
20/11:30am 36.1 38.6 21.1 41 10.2 S 9 13 5 7 1012.3 1012.0 0.0
20/11:00am 35.2 37.9 22.2 47 8.9 NW 11 20 6 11 1012.4 1012.1 0.0
20/10:30am 35.4 38.6 23.0 48 8.6 WNW 11 15 6 8 1012.4 1012.1 -
20/10:00am 33.4 37.2 23.4 55 6.9 NNW 9 17 5 9 1012.9 1012.6 -
20/09:30am 32.2 37.2 24.8 65 5.2 N 7 17 4 9 1013.0 1012.7 -
20/09:00am 30.8 35.4 24.7 70 4.3 NNW 9 15 5 8 1013.1 1012.8 -
20/08:40am 29.9 34.8 25.2 76 3.3 N 9 13 5 7 1012.9 1012.6 -
20/08:30am 29.4 34.7 25.2 78 3.0 N 7 11 4 6 1012.7 1012.4 -
20/08:16am 29.0 34.0 25.4 81 2.5 N 9 11 5 6 1012.6 1012.3 -
20/08:12am 28.9 33.8 25.3 81 2.5 N 9 11 5 6 1012.6 1012.3 -
20/08:00am 28.7 34.1 25.5 83 2.3 N 7 11 4 6 1012.5 1012.2 -
20/07:30am 28.3 34.8 25.1 83 2.2 CALM 0 0 0 0 1012.1 1011.8 -
20/07:00am 26.9 32.6 23.8 83 2.1 CALM 0 0 0 0 1011.7 1011.4 -
20/06:54am 26.6 32.4 23.9 85 1.9 CALM 0 0 0 0 1011.6 1011.3 -
20/06:31am 26.6 32.2 24.8 90 1.3 SE 4 9 2 5 1011.3 1011.0 -
20/06:30am 26.6 32.1 24.6 89 1.4 SE 4 9 2 5 1011.3 1011.0 -
20/06:11am 26.0 31.2 23.5 86 1.7 SSE 2 6 1 3 1010.8 1010.5 -
20/06:00am 25.7 31.0 23.0 85 1.8 CALM 0 0 0 0 1010.7 1010.4 -
20/05:41am 26.0 31.2 22.9 83 2.1 CALM 0 0 0 0 1010.5 1010.2 -
20/05:30am 26.0 31.2 22.9 83 2.1 CALM 0 0 0 0 1010.3 1010.0 -
20/05:23am 25.9 31.3 23.2 85 1.8 CALM 0 0 0 0 1010.3 1010.0 -
20/05:00am 26.3 31.8 23.4 84 2.0 CALM 0 0 0 0 1010.0 1009.7 -
20/04:37am 26.5 31.9 23.2 82 2.2 CALM 0 0 0 0 1009.8 1009.5 -
20/04:30am 26.6 31.8 23.5 83 2.1 SSW 2 7 1 4 1009.8 1009.5 0.0
20/04:17am 26.1 30.2 23.0 83 2.1 WSW 6 7 3 4 1009.8 1009.5 -
20/04:00am 26.2 31.1 22.3 79 2.6 CALM 0 6 0 3 1009.7 1009.4 -
20/03:30am 26.1 30.2 22.2 79 2.6 NNE 4 7 2 4 1009.5 1009.2 -
20/03:26am 26.2 30.1 22.5 80 2.5 NNE 6 7 3 4 1009.5 1009.2 -
20/03:00am 27.0 30.9 22.6 77 3.0 S 6 7 3 4 1009.6 1009.3 -
20/02:46am 26.5 30.5 22.8 80 2.5 SSW 6 9 3 5 1009.7 1009.4 -
20/02:32am 27.0 31.9 22.4 76 3.1 CALM 0 6 0 3 1009.6 1009.3 -
20/02:30am 26.8 31.7 22.4 77 3.0 CALM 0 0 0 0 1009.6 1009.3 -
20/02:16am 27.5 31.8 23.3 78 2.9 SSE 6 9 3 5 1009.6 1009.3 -
20/02:02am 27.3 32.2 22.3 74 3.4 CALM 0 0 0 0 1009.4 1009.1 -
20/02:00am 27.3 32.2 22.3 74 3.4 CALM 0 0 0 0 1009.4 1009.1 -
20/01:51am 27.3 31.3 22.0 73 3.6 NE 4 7 2 4 1009.4 1009.1 -
20/01:44am 27.3 31.3 22.0 73 3.6 N 4 7 2 4 1009.6 1009.3 -
20/01:33am 27.0 31.7 22.0 74 3.4 CALM 0 2 0 1 1009.5 1009.2 -
20/01:30am 27.1 31.7 21.8 73 3.6 CALM 0 6 0 3 1009.4 1009.1 -
20/01:00am 27.2 31.4 22.4 75 3.2 N 4 7 2 4 1009.6 1009.3 -
20/12:44am 27.0 30.6 22.0 74 3.4 N 6 7 3 4 1009.6 1009.3 -
20/12:30am 27.0 30.1 21.5 72 3.7 NW 7 9 4 5 1009.6 1009.3 -
20/12:29am 27.0 30.1 21.5 72 3.7 NW 7 9 4 5 1009.6 1009.3 -
20/12:16am 26.9 30.1 21.2 71 3.8 NW 6 7 3 4 1009.6 1009.3 -
20/12:00am 27.3 30.9 21.3 69 4.0 NW 4 6 2 3 1009.8 1009.5 -
 
Date/Time
CST
Temp
°C
App
Temp
°C
Dew
Point
°C
Rel
Hum
%
Delta-T
°C
Wind Press
QNH
hPa
Press
MSL
hPa
Rain since
9am
mm
Dir  Spd
km/h
Gust
km/h
Spd
kts
Gust
kts
19/11:58pm 27.5 31.2 21.5 70 4.0 NW 4 6 2 3 1009.8 1009.5 -
19/11:57pm 27.4 31.2 21.7 71 3.8 NW 4 6 2 3 1009.8 1009.5 -
19/11:42pm 27.1 31.0 21.2 70 3.9 NNE 2 7 1 4 1010.1 1009.8 -
19/11:30pm 27.4 31.7 21.2 69 4.1 CALM 0 0 0 0 1010.1 1009.8 -
19/11:00pm 27.9 31.5 21.2 67 4.5 NE 4 7 2 4 1010.2 1009.9 -
19/10:30pm 28.2 32.5 21.2 65 4.7 CALM 0 0 0 0 1009.7 1009.4 -
19/10:00pm 28.3 32.7 21.3 65 4.7 CALM 0 0 0 0 1009.7 1009.4 -
19/09:30pm 28.5 31.8 21.5 66 4.7 NE 6 7 3 4 1009.6 1009.3 -
19/09:06pm 28.5 31.6 21.5 66 4.7 NNE 7 9 4 5 1009.4 1009.1 -
19/09:00pm 28.5 31.8 21.8 67 4.5 N 7 9 4 5 1009.3 1009.0 -
19/08:52pm 28.7 31.9 21.7 66 4.7 N 7 9 4 5 1009.4 1009.1 -
19/08:30pm 28.9 31.9 21.9 66 4.7 NNE 9 15 5 8 1009.2 1008.9 -
19/08:00pm 29.3 31.1 21.8 64 5.1 N 15 17 8 9 1009.0 1008.7 -
19/07:30pm 29.7 31.4 22.4 65 5.0 N 17 24 9 13 1008.7 1008.4 -
19/07:00pm 30.3 30.0 22.5 63 5.3 N 28 39 15 21 1008.1 1007.8 -
19/06:30pm 32.7 32.4 22.5 55 7.0 NNE 28 43 15 23 1007.3 1007.0 -
19/06:00pm 35.8 36.0 22.0 44 9.5 N 24 30 13 16 1006.3 1006.0 -
19/05:30pm 35.8 35.6 22.0 44 9.5 N 26 35 14 19 1005.7 1005.4 -

Other Formats:

Comma delimited format used in spreadsheet applications
http://www.bom.gov.au/fwo/IDD60801/IDD60801.94216.axf

JavaScript Object Notation format (JSON) in row-major order
http://www.bom.gov.au/fwo/IDD60801/IDD60801.94216.json